Time;durP1;ratioP1;P1;durP2;ratioP2;P2;SDS_P1;SDS_P2;PMS_P1;PMS_P2;Temp;Humidity;BMP_temperature;BMP_pressure;BME280_temperature;BME280_humidity;BME280_pressure;Samples;Min_cycle;Max_cycle;Signal;HPM_P1;HPM_P2
2021/08/08 00:00:15;;;;;;;2.05;0.80;;;16.30;89.40;;;;;;2051749;28;20020;-92
2021/08/08 00:01:16;;;;;;;1.65;0.75;;;16.30;89.50;;;;;;2056245;28;20035;-92
2021/08/08 00:02:17;;;;;;;1.95;0.80;;;16.40;89.60;;;;;;2065870;28;20030;-93
2021/08/08 00:03:17;;;;;;;1.50;0.80;;;16.40;89.60;;;;;;2041730;29;20044;-92
2021/08/08 00:04:18;;;;;;;1.42;0.90;;;16.30;89.50;;;;;;2040536;29;20090;-92
2021/08/08 00:05:19;;;;;;;2.63;0.98;;;16.30;89.60;;;;;;2046346;29;20031;-92
2021/08/08 00:06:19;;;;;;;2.95;1.08;;;16.30;89.60;;;;;;2050571;29;20057;-93
2021/08/08 00:07:20;;;;;;;1.40;0.88;;;16.40;89.70;;;;;;2050894;28;20440;-93
2021/08/08 00:08:24;;;;;;;2.53;1.17;;;16.30;89.70;;;;;;2058204;29;20055;-93
2021/08/08 00:09:25;;;;;;;1.65;0.95;;;16.30;89.70;;;;;;2057164;28;20469;-92
2021/08/08 00:10:26;;;;;;;1.55;1.00;;;16.30;89.80;;;;;;2057501;29;20059;-93
2021/08/08 00:11:27;;;;;;;1.98;1.10;;;16.30;89.80;;;;;;2043445;29;20043;-93
2021/08/08 00:12:27;;;;;;;1.90;0.98;;;16.30;89.80;;;;;;2048618;29;20036;-93
2021/08/08 00:13:28;;;;;;;1.75;0.98;;;16.30;89.80;;;;;;2050107;29;20055;-93
2021/08/08 00:14:29;;;;;;;1.95;1.00;;;16.30;89.90;;;;;;2057283;28;20028;-93
2021/08/08 00:15:29;;;;;;;1.85;1.10;;;16.30;89.90;;;;;;2051729;29;20043;-92
2021/08/08 00:16:30;;;;;;;2.13;1.10;;;16.30;89.90;;;;;;2057713;28;20072;-92
2021/08/08 00:17:31;;;;;;;1.80;1.10;;;16.30;89.90;;;;;;2066701;28;20118;-92
2021/08/08 00:18:32;;;;;;;2.15;1.05;;;16.40;90.00;;;;;;2051390;28;20039;-93
2021/08/08 00:19:33;;;;;;;2.97;1.40;;;16.30;89.90;;;;;;2050745;29;20032;-93
2021/08/08 00:20:34;;;;;;;4.43;1.23;;;16.40;90.00;;;;;;2033910;29;20040;-94
2021/08/08 00:21:35;;;;;;;3.42;1.10;;;16.40;90.00;;;;;;2040175;28;20087;-93
2021/08/08 00:22:35;;;;;;;1.85;1.00;;;16.40;90.00;;;;;;2058103;28;20062;-92
2021/08/08 00:23:36;;;;;;;2.47;1.02;;;16.40;90.30;;;;;;2063564;28;20117;-94
2021/08/08 00:24:37;;;;;;;2.10;1.20;;;16.40;90.00;;;;;;2054423;28;20493;-93
2021/08/08 00:25:37;;;;;;;2.67;1.23;;;16.40;90.00;;;;;;2044095;28;20526;-92
2021/08/08 00:26:38;;;;;;;2.42;1.27;;;16.40;90.00;;;;;;2047926;29;20513;-92
2021/08/08 00:27:39;;;;;;;4.75;1.45;;;16.40;90.00;;;;;;2034277;29;20046;-92
2021/08/08 00:28:40;;;;;;;2.20;1.20;;;16.40;90.10;;;;;;2041873;28;20390;-93
2021/08/08 00:29:41;;;;;;;3.08;1.50;;;16.30;90.10;;;;;;2045410;29;20071;-92
2021/08/08 00:30:42;;;;;;;2.50;1.15;;;16.40;90.10;;;;;;2041634;29;20050;-93
2021/08/08 00:31:43;;;;;;;2.53;1.30;;;16.30;90.10;;;;;;2042305;29;20039;-94
2021/08/08 00:32:43;;;;;;;2.13;1.27;;;16.30;90.10;;;;;;2036135;29;20079;-93
2021/08/08 00:33:44;;;;;;;3.10;1.10;;;16.30;90.10;;;;;;2047928;29;20043;-92
2021/08/08 00:34:45;;;;;;;2.83;1.40;;;16.30;90.10;;;;;;2033652;29;20063;-92
2021/08/08 00:35:45;;;;;;;1.70;1.20;;;16.30;90.20;;;;;;2034635;29;20075;-93
2021/08/08 00:36:46;;;;;;;2.85;1.50;;;16.30;90.50;;;;;;2042656;29;20043;-95
2021/08/08 00:37:48;;;;;;;1.80;1.33;;;16.30;90.20;;;;;;2041929;29;20409;-92
2021/08/08 00:38:49;;;;;;;3.03;1.50;;;16.30;90.20;;;;;;2050059;28;20647;-92
2021/08/08 00:39:49;;;;;;;3.15;1.48;;;16.30;90.20;;;;;;2049269;29;20043;-92
2021/08/08 00:40:50;;;;;;;2.13;1.40;;;16.30;90.30;;;;;;2047877;29;20159;-92
2021/08/08 00:41:52;;;;;;;3.00;1.52;;;16.30;90.30;;;;;;2041435;29;20465;-92
2021/08/08 00:42:55;;;;;;;2.67;1.35;;;16.30;90.30;;;;;;2048566;28;20036;-93
2021/08/08 00:43:57;;;;;;;4.18;1.63;;;16.30;90.30;;;;;;2048962;28;20035;-93
2021/08/08 00:44:59;;;;;;;2.47;1.60;;;16.30;90.30;;;;;;2041878;29;20040;-94
2021/08/08 00:46:02;;;;;;;2.78;1.50;;;16.30;90.40;;;;;;2042438;28;20044;-93
2021/08/08 00:47:10;;;;;;;3.05;1.70;;;16.30;90.40;;;;;;2057509;28;20576;-93
2021/08/08 00:48:16;;;;;;;3.15;1.80;;;16.20;90.40;;;;;;2057707;28;20129;-94
2021/08/08 00:49:17;;;;;;;3.30;1.60;;;16.20;90.40;;;;;;2051525;28;20046;-93
2021/08/08 00:50:19;;;;;;;2.78;1.60;;;16.20;90.40;;;;;;2055527;28;20041;-94
2021/08/08 00:51:19;;;;;;;4.10;1.70;;;16.20;90.50;;;;;;2049630;28;20493;-93
2021/08/08 00:52:20;;;;;;;3.40;1.85;;;16.20;90.50;;;;;;2048976;28;20035;-93
2021/08/08 00:53:21;;;;;;;2.42;1.67;;;16.20;90.50;;;;;;2041819;29;20434;-94
2021/08/08 00:54:21;;;;;;;2.53;1.67;;;16.20;90.60;;;;;;2041866;29;20122;-93
2021/08/08 00:55:22;;;;;;;2.55;1.67;;;16.20;90.60;;;;;;2040484;29;20115;-94
2021/08/08 00:56:23;;;;;;;2.20;1.50;;;16.20;90.70;;;;;;2041547;29;20040;-96
2021/08/08 00:57:24;;;;;;;3.25;1.85;;;16.20;90.70;;;;;;2049462;29;20063;-93
2021/08/08 00:58:26;;;;;;;3.08;1.90;;;16.10;90.70;;;;;;2048980;29;20050;-94
2021/08/08 00:59:27;;;;;;;3.45;2.13;;;16.10;90.70;;;;;;2049513;29;20035;-94
2021/08/08 01:00:28;;;;;;;3.33;1.83;;;16.10;90.70;;;;;;2049454;29;20039;-94
2021/08/08 01:01:31;;;;;;;4.00;1.77;;;16.10;90.80;;;;;;2049558;28;20513;-94
2021/08/08 01:02:34;;;;;;;3.60;2.03;;;16.10;90.80;;;;;;2057327;28;20034;-96
2021/08/08 01:03:36;;;;;;;3.50;1.80;;;16.10;90.80;;;;;;2049927;28;20031;-94
2021/08/08 01:04:41;;;;;;;4.07;2.05;;;16.10;90.90;;;;;;2055173;28;20040;-95
2021/08/08 01:05:52;;;;;;;4.22;2.22;;;16.00;90.90;;;;;;2054965;28;20135;-96
2021/08/08 01:07:02;;;;;;;3.15;1.92;;;16.10;90.90;;;;;;2058620;28;20042;-95
2021/08/08 01:08:08;;;;;;;3.47;1.85;;;16.10;90.90;;;;;;2060798;28;20119;-93
2021/08/08 01:09:11;;;;;;;3.05;1.83;;;16.10;91.00;;;;;;2058221;28;20532;-95
2021/08/08 01:10:13;;;;;;;4.10;2.40;;;16.00;91.00;;;;;;2057750;28;20027;-95
2021/08/08 01:11:14;;;;;;;4.70;2.40;;;16.00;91.00;;;;;;2049830;28;20133;-96
2021/08/08 01:12:15;;;;;;;3.88;2.00;;;16.00;91.00;;;;;;2041554;28;20035;-95
2021/08/08 01:13:16;;;;;;;3.78;2.10;;;16.00;91.10;;;;;;2057859;28;20082;-96
2021/08/08 01:14:18;;;;;;;4.18;2.47;;;16.00;91.10;;;;;;2049237;29;20430;-93
2021/08/08 01:15:19;;;;;;;3.90;2.20;;;16.00;91.10;;;;;;2055932;28;20042;-93
2021/08/08 01:16:21;;;;;;;3.95;2.10;;;16.00;91.10;;;;;;2057354;28;20142;-94
2021/08/08 01:17:23;;;;;;;4.60;2.33;;;16.00;91.20;;;;;;2049183;28;20043;-93
2021/08/08 01:18:25;;;;;;;4.55;2.42;;;16.00;91.20;;;;;;2042166;28;20042;-92
2021/08/08 01:19:29;;;;;;;3.63;2.33;;;16.00;91.20;;;;;;2057337;28;20071;-94
2021/08/08 01:20:30;;;;;;;4.57;2.70;;;16.00;91.20;;;;;;2057985;28;20037;-96
2021/08/08 01:21:32;;;;;;;4.50;2.40;;;16.00;91.30;;;;;;2064884;28;20042;-93
2021/08/08 01:22:34;;;;;;;3.88;2.30;;;16.00;91.30;;;;;;2064872;28;20030;-94
2021/08/08 01:23:36;;;;;;;4.32;2.40;;;16.00;91.30;;;;;;2064940;28;20030;-95
2021/08/08 01:24:37;;;;;;;7.50;2.83;;;16.00;91.30;;;;;;2057574;28;20125;-94
2021/08/08 01:25:39;;;;;;;5.47;2.90;;;16.00;91.30;;;;;;2065021;28;20030;-94
2021/08/08 01:26:41;;;;;;;5.07;2.67;;;16.00;91.40;;;;;;2049649;28;20134;-93
2021/08/08 01:27:42;;;;;;;5.40;2.60;;;15.90;91.30;;;;;;2056897;28;20102;-92
2021/08/08 01:28:43;;;;;;;5.43;2.35;;;16.00;91.40;;;;;;2057003;28;20058;-93
2021/08/08 01:29:44;;;;;;;6.00;2.83;;;16.00;91.40;;;;;;2050664;28;20034;-93
2021/08/08 01:30:45;;;;;;;5.43;3.17;;;16.00;91.40;;;;;;2049329;28;20544;-92
2021/08/08 01:31:53;;;;;;;4.95;2.80;;;15.90;91.40;;;;;;2048844;28;20525;-92
2021/08/08 01:33:06;;;;;;;5.55;2.75;;;16.00;91.50;;;;;;2056100;28;20050;-91
2021/08/08 01:34:07;;;;;;;9.27;3.35;;;15.90;91.50;;;;;;2060800;28;20027;-92
2021/08/08 01:35:08;;;;;;;6.25;3.10;;;15.90;91.50;;;;;;2056905;28;20035;-93
2021/08/08 01:36:09;;;;;;;6.00;3.30;;;15.90;91.60;;;;;;2049448;28;20090;-91
2021/08/08 01:37:10;;;;;;;6.10;3.08;;;15.90;91.60;;;;;;2041232;29;20087;-91
2021/08/08 01:38:10;;;;;;;5.60;3.42;;;15.90;91.60;;;;;;2049182;28;20151;-91
2021/08/08 01:39:25;;;;;;;5.47;3.17;;;15.90;91.60;;;;;;2060314;28;20073;-91
2021/08/08 01:40:28;;;;;;;5.15;3.10;;;15.90;91.60;;;;;;2060642;28;20138;-92
2021/08/08 01:41:38;;;;;;;8.63;3.50;;;15.90;91.60;;;;;;2061653;28;20043;-91
2021/08/08 01:42:40;;;;;;;6.10;3.03;;;15.90;91.60;;;;;;2059104;28;20035;-90
2021/08/08 01:43:47;;;;;;;7.05;3.65;;;15.90;91.60;;;;;;2064985;28;20027;-91
2021/08/08 01:44:52;;;;;;;6.35;3.25;;;15.90;91.60;;;;;;2058478;28;20493;-91
2021/08/08 01:46:03;;;;;;;5.03;3.10;;;15.90;91.60;;;;;;2065335;28;20089;-91
2021/08/08 01:47:05;;;;;;;6.22;3.20;;;15.90;91.70;;;;;;2064853;28;20121;-92
2021/08/08 01:48:09;;;;;;;5.47;3.10;;;15.90;91.70;;;;;;2053542;28;20031;-90
2021/08/08 01:49:10;;;;;;;5.28;3.20;;;15.90;91.70;;;;;;2049521;28;20039;-92
2021/08/08 01:50:11;;;;;;;6.40;3.22;;;15.90;91.70;;;;;;2057490;28;20117;-92
2021/08/08 01:51:13;;;;;;;6.88;3.55;;;15.90;91.70;;;;;;2049190;28;20486;-91
2021/08/08 01:52:14;;;;;;;6.38;3.25;;;15.90;91.70;;;;;;2049393;28;20067;-91
2021/08/08 01:53:16;;;;;;;5.10;3.50;;;15.90;91.70;;;;;;2050445;28;20035;-91
2021/08/08 01:54:17;;;;;;;6.25;3.50;;;15.90;91.70;;;;;;2060810;28;20097;-92
2021/08/08 01:55:18;;;;;;;6.13;3.70;;;15.90;91.70;;;;;;2057096;28;20041;-91
2021/08/08 01:56:19;;;;;;;5.18;3.63;;;15.80;91.70;;;;;;2056985;28;20039;-93
2021/08/08 01:57:20;;;;;;;6.30;3.70;;;15.90;91.80;;;;;;2057183;28;20035;-93
2021/08/08 01:58:26;;;;;;;6.45;3.83;;;15.90;91.80;;;;;;2057125;28;20035;-93
2021/08/08 01:59:27;;;;;;;6.60;3.90;;;15.90;91.80;;;;;;2057690;28;20138;-92
2021/08/08 02:00:28;;;;;;;7.25;3.92;;;15.80;91.80;;;;;;2056858;28;20046;-94
2021/08/08 02:01:29;;;;;;;6.05;3.80;;;15.90;91.80;;;;;;2041038;28;20048;-93
2021/08/08 02:02:30;;;;;;;7.32;3.80;;;15.80;91.80;;;;;;2049163;28;20110;-93
2021/08/08 02:03:34;;;;;;;7.00;3.72;;;15.80;91.80;;;;;;2048944;29;20039;-93
2021/08/08 02:04:35;;;;;;;9.95;4.50;;;15.80;92.00;;;;;;2052109;28;20063;-93
2021/08/08 02:05:36;;;;;;;7.68;4.32;;;15.80;91.80;;;;;;2050771;28;20053;-94
2021/08/08 02:06:37;;;;;;;7.25;4.05;;;15.80;91.90;;;;;;2057637;28;20041;-93
2021/08/08 02:07:38;;;;;;;6.25;4.10;;;15.80;91.90;;;;;;2057855;28;20047;-95
2021/08/08 02:08:38;;;;;;;8.55;4.63;;;15.80;91.90;;;;;;2063090;28;20061;-93
2021/08/08 02:09:40;;;;;;;9.35;4.13;;;15.80;91.90;;;;;;2058263;28;20151;-95
2021/08/08 02:10:41;;;;;;;8.88;3.95;;;15.80;91.90;;;;;;2075445;28;20034;-91
2021/08/08 02:11:41;;;;;;;7.40;4.30;;;15.80;91.90;;;;;;2065858;28;20078;-93
2021/08/08 02:12:42;;;;;;;6.35;3.75;;;15.80;91.90;;;;;;2067059;28;20176;-94
2021/08/08 02:13:43;;;;;;;7.85;3.90;;;15.80;91.90;;;;;;2061412;28;20027;-95
2021/08/08 02:14:44;;;;;;;6.85;3.80;;;15.80;92.00;;;;;;2059152;28;20032;-95
2021/08/08 02:15:44;;;;;;;6.32;3.78;;;15.80;92.00;;;;;;2056017;28;20035;-95
2021/08/08 02:16:45;;;;;;;6.43;3.70;;;15.80;92.00;;;;;;2064447;28;20106;-96
2021/08/08 02:17:47;;;;;;;7.80;3.45;;;15.80;92.00;;;;;;2065943;28;20035;-96
2021/08/08 02:18:49;;;;;;;7.65;3.58;;;15.80;92.00;;;;;;2058094;28;20062;-96
2021/08/08 02:19:49;;;;;;;6.90;3.53;;;15.80;92.00;;;;;;2057651;28;20031;-95
2021/08/08 02:20:52;;;;;;;6.40;3.50;;;15.80;92.00;;;;;;2056662;29;20127;-96
2021/08/08 02:21:53;;;;;;;8.40;4.00;;;15.80;92.00;;;;;;2058456;28;20063;-94
2021/08/08 02:22:53;;;;;;;5.82;3.65;;;15.80;92.00;;;;;;2073791;28;20026;-92
2021/08/08 02:23:54;;;;;;;6.65;3.42;;;15.80;92.00;;;;;;2065362;28;20026;-96
2021/08/08 02:24:54;;;;;;;8.10;4.00;;;15.80;92.00;;;;;;2065054;28;20015;-95
2021/08/08 02:25:55;;;;;;;7.65;3.70;;;15.80;92.10;;;;;;2064718;28;20031;-95
2021/08/08 02:26:57;;;;;;;8.20;3.95;;;15.80;92.10;;;;;;2053795;28;20044;-96
2021/08/08 02:27:58;;;;;;;7.32;3.90;;;15.80;92.10;;;;;;2051793;28;20039;-95
2021/08/08 02:28:58;;;;;;;8.35;4.13;;;15.80;92.10;;;;;;2053098;28;20477;-96
2021/08/08 02:29:59;;;;;;;9.48;4.60;;;15.80;92.10;;;;;;2059948;28;20046;-94
2021/08/08 02:31:00;;;;;;;7.43;4.00;;;15.80;92.10;;;;;;2060775;28;20149;-94
2021/08/08 02:32:00;;;;;;;7.25;3.90;;;15.80;92.10;;;;;;2059001;28;20030;-96
2021/08/08 02:33:02;;;;;;;6.65;4.00;;;15.80;92.10;;;;;;2060320;28;20062;-95
2021/08/08 02:34:03;;;;;;;9.63;3.95;;;15.80;92.20;;;;;;2065791;28;20031;-95
2021/08/08 02:35:05;;;;;;;9.70;4.20;;;15.80;92.20;;;;;;2058324;28;20047;-95
2021/08/08 02:36:06;;;;;;;8.07;4.30;;;15.80;92.20;;;;;;2055374;28;20045;-95
2021/08/08 02:37:06;;;;;;;8.13;3.85;;;15.80;92.20;;;;;;2062962;28;20031;-95
2021/08/08 02:38:07;;;;;;;7.40;3.88;;;15.80;92.20;;;;;;2059531;28;20028;-92
2021/08/08 02:39:08;;;;;;;7.65;3.88;;;15.80;92.20;;;;;;2051170;29;20028;-95
2021/08/08 02:40:10;;;;;;;8.43;3.65;;;15.80;92.20;;;;;;2058820;28;20032;-91
2021/08/08 02:41:10;;;;;;;8.10;4.00;;;15.80;92.20;;;;;;2060703;28;20153;-96
2021/08/08 02:42:11;;;;;;;8.45;3.90;;;15.80;92.20;;;;;;2059403;28;20040;-95
2021/08/08 02:43:12;;;;;;;7.68;3.65;;;15.80;92.20;;;;;;2045208;28;20042;-94
2021/08/08 02:44:12;;;;;;;8.27;3.60;;;15.80;92.20;;;;;;2052392;28;20032;-94
2021/08/08 02:45:13;;;;;;;9.48;4.20;;;15.80;92.30;;;;;;2067637;28;20043;-95
2021/08/08 02:46:14;;;;;;;7.95;4.00;;;15.70;92.20;;;;;;2067953;28;20033;-95
2021/08/08 02:47:15;;;;;;;7.97;4.20;;;15.80;92.20;;;;;;2050594;28;20047;-95
2021/08/08 02:48:17;;;;;;;7.93;4.07;;;15.80;92.20;;;;;;2053525;28;20046;-95
2021/08/08 02:49:18;;;;;;;10.05;4.53;;;15.80;92.20;;;;;;2051411;28;20035;-95
2021/08/08 02:50:19;;;;;;;6.43;4.25;;;15.80;92.20;;;;;;2067372;28;20042;-95
2021/08/08 02:51:19;;;;;;;7.57;4.20;;;15.80;92.30;;;;;;2053365;28;20039;-94
2021/08/08 02:52:20;;;;;;;9.40;4.22;;;15.70;92.20;;;;;;2057875;28;20039;-95
2021/08/08 02:53:21;;;;;;;7.90;4.20;;;15.70;92.20;;;;;;2066082;28;20057;-95
2021/08/08 02:54:21;;;;;;;10.00;4.47;;;15.80;92.30;;;;;;2058296;28;20058;-94
2021/08/08 02:55:22;;;;;;;7.30;3.88;;;15.80;92.30;;;;;;2059075;28;20050;-94
2021/08/08 02:56:23;;;;;;;10.15;4.30;;;15.70;92.30;;;;;;2054780;29;20031;-94
2021/08/08 02:57:24;;;;;;;9.73;4.00;;;15.70;92.30;;;;;;2059744;28;20011;-95
2021/08/08 02:58:24;;;;;;;7.40;3.83;;;15.70;92.30;;;;;;2066055;28;20066;-94
2021/08/08 02:59:25;;;;;;;6.75;3.85;;;15.70;92.30;;;;;;2042996;29;20115;-94
2021/08/08 03:00:26;;;;;;;6.95;4.05;;;15.70;92.30;;;;;;2050585;29;20048;-95
2021/08/08 03:01:27;;;;;;;8.15;4.15;;;15.70;92.30;;;;;;2050332;28;20043;-95
2021/08/08 03:02:27;;;;;;;8.45;4.35;;;15.70;92.30;;;;;;2058028;28;20032;-95
2021/08/08 03:03:31;;;;;;;9.13;4.07;;;15.70;92.30;;;;;;2058335;28;20059;-94
2021/08/08 03:04:32;;;;;;;7.50;4.13;;;15.70;92.30;;;;;;2066522;28;20043;-94
2021/08/08 03:05:32;;;;;;;8.77;4.55;;;15.70;92.30;;;;;;2060011;28;20103;-94
2021/08/08 03:06:33;;;;;;;6.70;3.95;;;15.70;92.30;;;;;;2066617;28;20042;-95
2021/08/08 03:07:34;;;;;;;8.85;4.35;;;15.70;92.30;;;;;;2047039;29;20150;-95
2021/08/08 03:08:34;;;;;;;7.97;4.10;;;15.70;92.30;;;;;;2037174;29;20379;-95
2021/08/08 03:09:35;;;;;;;7.72;4.30;;;15.70;92.30;;;;;;2056308;28;20071;-93
2021/08/08 03:10:36;;;;;;;7.40;4.10;;;15.70;92.30;;;;;;2067769;28;20073;-94
2021/08/08 03:11:37;;;;;;;7.70;4.07;;;15.70;92.30;;;;;;2069371;28;21216;-95
2021/08/08 03:12:37;;;;;;;10.65;4.53;;;15.70;92.30;;;;;;2072947;28;21417;-94
2021/08/08 03:13:39;;;;;;;8.15;4.13;;;15.70;92.30;;;;;;2071497;28;20027;-94
2021/08/08 03:14:39;;;;;;;8.98;4.25;;;15.70;92.30;;;;;;2066564;28;20066;-94
2021/08/08 03:15:40;;;;;;;7.82;4.10;;;15.70;92.30;;;;;;2059203;28;20042;-94
2021/08/08 03:16:42;;;;;;;7.50;4.18;;;15.70;92.30;;;;;;2062148;28;20041;-93
2021/08/08 03:17:43;;;;;;;7.00;3.72;;;15.70;92.30;;;;;;2059485;28;20054;-94
2021/08/08 03:18:43;;;;;;;8.25;3.95;;;15.70;92.30;;;;;;2062325;28;20040;-93
2021/08/08 03:19:44;;;;;;;9.23;4.07;;;15.70;92.30;;;;;;2069903;28;20031;-93
2021/08/08 03:20:45;;;;;;;9.18;3.63;;;15.70;92.30;;;;;;2070103;28;20107;-94
2021/08/08 03:21:45;;;;;;;6.57;3.60;;;15.70;92.30;;;;;;2060086;28;20051;-93
2021/08/08 03:22:47;;;;;;;6.78;3.50;;;15.60;92.30;;;;;;2059874;28;20023;-94
2021/08/08 03:23:47;;;;;;;9.73;3.85;;;15.70;92.30;;;;;;2055176;28;20065;-93
2021/08/08 03:24:48;;;;;;;8.45;3.92;;;15.60;92.30;;;;;;2060188;28;20022;-94
2021/08/08 03:25:49;;;;;;;7.70;3.70;;;15.70;92.30;;;;;;2059673;28;20049;-93
2021/08/08 03:26:49;;;;;;;9.00;3.75;;;15.70;92.30;;;;;;2051906;29;20036;-95
2021/08/08 03:27:50;;;;;;;6.07;3.50;;;15.70;92.30;;;;;;2051876;28;20099;-94
2021/08/08 03:28:51;;;;;;;9.68;3.67;;;15.60;92.30;;;;;;2067530;28;20026;-94
2021/08/08 03:29:54;;;;;;;9.23;4.07;;;15.70;92.30;;;;;;2054540;28;20039;-94
2021/08/08 03:30:55;;;;;;;10.45;3.85;;;15.70;92.30;;;;;;2055881;28;20034;-94
2021/08/08 03:31:56;;;;;;;6.95;3.40;;;15.70;92.30;;;;;;2060376;28;20011;-93
2021/08/08 03:32:56;;;;;;;7.65;3.78;;;15.70;92.30;;;;;;2063489;28;20512;-93
2021/08/08 03:33:57;;;;;;;7.93;3.50;;;15.70;92.30;;;;;;2051736;29;20063;-94
2021/08/08 03:34:58;;;;;;;6.85;3.30;;;15.70;92.30;;;;;;2051895;28;20118;-93
2021/08/08 03:35:58;;;;;;;8.40;3.50;;;15.70;92.30;;;;;;2066110;28;20035;-93
2021/08/08 03:36:59;;;;;;;5.68;2.88;;;15.70;92.30;;;;;;2062071;28;20039;-94
2021/08/08 03:38:01;;;;;;;7.85;3.28;;;15.70;92.30;;;;;;2052568;28;20042;-95
2021/08/08 03:39:03;;;;;;;8.02;3.60;;;15.70;92.30;;;;;;2060561;28;20039;-95
2021/08/08 03:40:04;;;;;;;6.82;3.58;;;15.70;92.30;;;;;;2059554;28;20119;-94
2021/08/08 03:41:05;;;;;;;8.63;3.80;;;15.70;92.30;;;;;;2055169;28;20040;-95
2021/08/08 03:42:06;;;;;;;8.20;3.28;;;15.70;92.30;;;;;;2048605;29;20036;-95
2021/08/08 03:43:07;;;;;;;7.00;3.45;;;15.70;92.30;;;;;;2044954;29;20028;-95
2021/08/08 03:44:07;;;;;;;7.72;3.50;;;15.70;92.30;;;;;;2052990;28;20115;-95
2021/08/08 03:45:08;;;;;;;8.75;3.22;;;15.70;92.30;;;;;;2052636;28;20069;-95
2021/08/08 03:46:09;;;;;;;8.35;2.92;;;15.70;92.30;;;;;;2041652;29;20032;-95
2021/08/08 03:47:10;;;;;;;9.95;3.40;;;15.70;92.30;;;;;;2053866;28;20035;-95
2021/08/08 03:48:12;;;;;;;9.18;3.50;;;15.60;92.30;;;;;;2053069;28;20035;-95
2021/08/08 03:49:14;;;;;;;7.65;3.35;;;15.60;92.30;;;;;;2052750;28;20047;-94
2021/08/08 03:50:15;;;;;;;8.48;3.20;;;15.60;92.30;;;;;;2052845;28;20142;-95
2021/08/08 03:51:16;;;;;;;6.95;3.08;;;15.70;92.30;;;;;;2057741;28;20121;-94
2021/08/08 03:52:17;;;;;;;8.82;3.40;;;15.70;92.30;;;;;;2061648;28;20057;-95
2021/08/08 03:53:17;;;;;;;8.18;3.33;;;15.60;92.30;;;;;;2057591;28;20083;-95
2021/08/08 03:54:18;;;;;;;7.57;3.08;;;15.70;92.30;;;;;;2055800;28;20091;-95
2021/08/08 03:55:19;;;;;;;7.88;3.10;;;15.60;92.30;;;;;;2052187;28;20059;-94
2021/08/08 03:56:22;;;;;;;7.00;3.38;;;15.60;92.30;;;;;;2052103;29;20035;-95
2021/08/08 03:57:23;;;;;;;8.18;3.25;;;15.60;92.30;;;;;;2059312;28;20039;-94
2021/08/08 03:58:29;;;;;;;7.72;3.55;;;15.60;92.20;;;;;;2049517;29;20066;-95
2021/08/08 03:59:30;;;;;;;8.75;3.45;;;15.60;92.20;;;;;;2051349;28;20091;-95
2021/08/08 04:00:31;;;;;;;6.75;3.30;;;15.60;92.30;;;;;;2059925;28;20520;-95
2021/08/08 04:01:31;;;;;;;8.27;3.15;;;15.60;92.20;;;;;;2054054;28;20047;-96
2021/08/08 04:02:32;;;;;;;8.40;3.05;;;15.60;92.20;;;;;;2050804;29;20501;-95
2021/08/08 04:03:34;;;;;;;5.45;2.97;;;15.60;92.20;;;;;;2028319;29;20117;-95
2021/08/08 04:04:35;;;;;;;7.93;3.17;;;15.60;92.20;;;;;;2051172;28;20042;-94
2021/08/08 04:05:35;;;;;;;10.80;3.40;;;15.60;92.20;;;;;;2051638;28;20068;-96
2021/08/08 04:06:36;;;;;;;8.93;3.38;;;15.60;92.20;;;;;;2059373;28;20039;-95
2021/08/08 04:07:37;;;;;;;8.50;3.10;;;15.60;92.20;;;;;;2051335;28;20043;-95
2021/08/08 04:08:38;;;;;;;6.95;3.22;;;15.60;92.20;;;;;;2059251;28;20573;-94
2021/08/08 04:09:38;;;;;;;6.68;3.22;;;15.60;92.20;;;;;;2051027;29;20050;-95
2021/08/08 04:10:39;;;;;;;8.98;3.10;;;15.60;92.20;;;;;;2050336;28;20035;-95
2021/08/08 04:11:40;;;;;;;8.27;3.25;;;15.60;92.20;;;;;;2050801;28;20066;-95
2021/08/08 04:12:41;;;;;;;7.20;3.17;;;15.60;92.20;;;;;;2058360;28;20170;-95
2021/08/08 04:13:42;;;;;;;10.20;3.30;;;15.60;92.20;;;;;;2058463;28;20061;-94
2021/08/08 04:14:43;;;;;;;10.77;3.17;;;15.60;92.20;;;;;;2058681;28;20039;-95
2021/08/08 04:15:44;;;;;;;8.65;3.45;;;15.60;92.20;;;;;;2043162;29;20075;-96
2021/08/08 04:16:45;;;;;;;8.07;2.80;;;15.60;92.20;;;;;;2044208;28;20059;-94
2021/08/08 04:17:45;;;;;;;8.95;3.42;;;15.60;92.20;;;;;;2044111;28;20044;-94
2021/08/08 04:18:46;;;;;;;7.97;3.50;;;15.60;92.20;;;;;;2051752;28;20039;-93
2021/08/08 04:19:47;;;;;;;7.45;2.97;;;15.60;92.20;;;;;;2044883;29;20043;-94
2021/08/08 04:20:47;;;;;;;9.48;2.88;;;15.60;92.20;;;;;;2052731;28;20544;-95
2021/08/08 04:21:48;;;;;;;8.48;2.92;;;15.60;92.20;;;;;;2051674;28;20045;-95
2021/08/08 04:22:49;;;;;;;7.10;2.95;;;15.50;92.20;;;;;;2051166;28;20035;-93
2021/08/08 04:23:49;;;;;;;8.98;3.05;;;15.50;92.20;;;;;;2051566;28;20601;-95
2021/08/08 04:24:51;;;;;;;8.40;2.70;;;15.60;92.20;;;;;;2050660;28;20063;-94
2021/08/08 04:25:51;;;;;;;8.00;2.92;;;15.50;92.20;;;;;;2061022;28;20434;-94
2021/08/08 04:26:52;;;;;;;8.82;2.92;;;15.50;92.20;;;;;;2059049;28;20058;-95
2021/08/08 04:27:53;;;;;;;6.53;2.70;;;15.50;92.20;;;;;;2058754;28;20043;-94
2021/08/08 04:28:53;;;;;;;9.50;3.40;;;15.50;92.20;;;;;;2053425;28;20046;-94
2021/08/08 04:29:54;;;;;;;5.95;2.72;;;15.50;92.20;;;;;;2059104;28;20038;-95
2021/08/08 04:30:55;;;;;;;6.47;2.80;;;15.50;92.20;;;;;;2058769;28;20046;-95
2021/08/08 04:31:55;;;;;;;5.18;2.90;;;15.50;92.20;;;;;;2065329;28;20038;-94
2021/08/08 04:32:56;;;;;;;9.95;3.53;;;15.60;92.30;;;;;;2058140;28;20034;-95
2021/08/08 04:33:57;;;;;;;10.25;3.28;;;15.50;92.20;;;;;;2045342;28;20132;-95
2021/08/08 04:34:57;;;;;;;7.20;2.95;;;15.50;92.20;;;;;;2051222;29;20046;-95
2021/08/08 04:35:58;;;;;;;7.90;3.35;;;15.50;92.20;;;;;;2049817;29;20039;-95
2021/08/08 04:37:00;;;;;;;8.82;3.03;;;15.50;92.20;;;;;;2049771;29;20039;-93
2021/08/08 04:38:01;;;;;;;9.93;3.10;;;15.50;92.20;;;;;;2062056;28;20045;-95
2021/08/08 04:39:02;;;;;;;7.10;2.90;;;15.50;92.20;;;;;;2050817;28;20036;-93
2021/08/08 04:40:03;;;;;;;8.20;2.90;;;15.50;92.20;;;;;;2059448;28;20046;-94
2021/08/08 04:41:04;;;;;;;6.13;2.85;;;15.50;92.20;;;;;;2059227;28;20500;-94
2021/08/08 04:42:04;;;;;;;5.13;2.72;;;15.50;92.20;;;;;;2053323;28;20070;-94
2021/08/08 04:43:05;;;;;;;6.30;2.85;;;15.50;92.20;;;;;;2043605;28;20083;-94
2021/08/08 04:44:06;;;;;;;6.57;2.92;;;15.50;92.20;;;;;;2050604;28;20039;-95
2021/08/08 04:45:07;;;;;;;7.30;2.80;;;15.50;92.20;;;;;;2050842;29;20082;-94
2021/08/08 04:46:08;;;;;;;7.57;3.00;;;15.50;92.20;;;;;;2048394;28;20110;-95
2021/08/08 04:47:08;;;;;;;8.68;3.20;;;15.50;92.20;;;;;;2051238;28;20451;-95
2021/08/08 04:48:09;;;;;;;9.05;2.90;;;15.50;92.20;;;;;;2055660;28;20043;-94
2021/08/08 04:49:10;;;;;;;7.95;2.80;;;15.50;92.20;;;;;;2051161;29;20047;-95
2021/08/08 04:50:11;;;;;;;5.78;2.63;;;15.50;92.40;;;;;;2051276;29;20043;-94
2021/08/08 04:51:11;;;;;;;7.72;3.08;;;15.50;92.10;;;;;;2050089;29;20047;-94
2021/08/08 04:52:12;;;;;;;6.13;2.70;;;15.50;92.10;;;;;;2045124;29;20043;-95
2021/08/08 04:53:17;;;;;;;6.10;2.97;;;15.50;92.10;;;;;;2058478;28;20074;-95
2021/08/08 04:54:17;;;;;;;9.27;3.10;;;15.50;92.10;;;;;;2053566;29;20027;-95
2021/08/08 04:55:18;;;;;;;7.18;3.00;;;15.50;92.10;;;;;;2048910;28;20024;-94
2021/08/08 04:56:19;;;;;;;8.90;3.00;;;15.50;92.10;;;;;;2061819;28;20050;-95
2021/08/08 04:57:19;;;;;;;8.32;3.42;;;15.50;92.10;;;;;;2043407;29;20046;-95
2021/08/08 04:58:21;;;;;;;7.75;3.05;;;15.50;92.10;;;;;;2037592;29;20130;-94
2021/08/08 04:59:22;;;;;;;8.57;3.17;;;15.50;92.10;;;;;;2051555;28;20035;-95
2021/08/08 05:00:22;;;;;;;5.40;2.85;;;15.50;92.10;;;;;;2051693;28;20043;-95
2021/08/08 05:01:23;;;;;;;9.95;3.22;;;15.50;92.10;;;;;;2051949;29;20106;-95
2021/08/08 05:02:24;;;;;;;7.45;2.78;;;15.50;92.10;;;;;;2044667;29;20125;-96
2021/08/08 05:03:24;;;;;;;8.13;3.42;;;15.50;92.10;;;;;;2047335;28;20091;-96
2021/08/08 05:04:25;;;;;;;6.20;3.35;;;15.50;92.10;;;;;;2055917;28;20035;-95
2021/08/08 05:05:26;;;;;;;7.07;2.90;;;15.50;92.10;;;;;;2047145;28;20047;-94
2021/08/08 05:06:28;;;;;;;6.85;3.28;;;15.60;92.10;;;;;;2060107;28;20042;-95
2021/08/08 05:07:29;;;;;;;11.18;3.65;;;15.60;92.10;;;;;;2058970;28;20062;-94
2021/08/08 05:08:30;;;;;;;6.65;3.03;;;15.60;92.10;;;;;;2053409;29;20167;-94
2021/08/08 05:09:30;;;;;;;8.70;3.40;;;15.60;92.00;;;;;;2060647;28;20074;-95
2021/08/08 05:10:32;;;;;;;6.82;2.88;;;15.50;92.00;;;;;;2044489;29;20070;-95
2021/08/08 05:11:33;;;;;;;7.30;3.08;;;15.50;92.00;;;;;;2065430;28;20031;-94
2021/08/08 05:12:33;;;;;;;6.85;3.00;;;15.50;91.90;;;;;;2080043;28;20044;-95
2021/08/08 05:13:34;;;;;;;6.53;3.00;;;15.60;92.00;;;;;;2058248;29;20035;-94
2021/08/08 05:14:38;;;;;;;5.97;2.95;;;15.60;92.00;;;;;;2057277;28;20114;-94
2021/08/08 05:15:39;;;;;;;10.20;3.13;;;15.60;91.90;;;;;;2061043;28;20031;-94
2021/08/08 05:16:39;;;;;;;7.70;2.90;;;15.60;91.90;;;;;;2071041;28;20038;-95
2021/08/08 05:17:42;;;;;;;5.82;2.58;;;15.60;91.90;;;;;;2066979;28;20039;-94
2021/08/08 05:18:43;;;;;;;7.50;3.25;;;15.60;91.90;;;;;;2064099;28;20035;-95